createdAt,value
2022-11-14T00:01:07.194Z,81.08
2022-11-14T00:03:33.723Z,81.03
2022-11-14T00:06:00.293Z,80.75
2022-11-14T00:08:29.481Z,80.57
2022-11-14T00:10:56.448Z,80.58
2022-11-14T00:13:22.948Z,80.14
2022-11-14T00:15:58.459Z,80.53
2022-11-14T00:18:27.905Z,80.82
2022-11-14T00:20:54.635Z,80.29
2022-11-14T00:23:21.924Z,79.81
2022-11-14T00:25:49.174Z,79.91
2022-11-14T00:28:16.131Z,79.77
2022-11-14T00:30:52.003Z,79.76
2022-11-14T00:33:20.718Z,80.03
2022-11-14T00:35:52.392Z,79.91
2022-11-14T00:38:18.889Z,79.49
2022-11-14T00:40:45.694Z,79.49
2022-11-14T00:43:14.382Z,79.77
2022-11-14T00:45:44.305Z,79.95
2022-11-14T00:48:14.171Z,80.22
2022-11-14T00:50:41.465Z,80.03
2022-11-14T00:53:08.039Z,79.88
2022-11-14T00:55:36.788Z,80.02
2022-11-14T00:58:03.768Z,80.36
2022-11-14T01:00:30.329Z,80.07
2022-11-14T01:02:58.293Z,80.27
2022-11-14T01:05:25.769Z,80.62
2022-11-14T01:07:52.615Z,80.23
2022-11-14T01:10:19.894Z,80.62
2022-11-14T01:12:46.903Z,80.86
2022-11-14T01:15:16.003Z,80.49
2022-11-14T01:17:42.570Z,80.74
2022-11-14T01:20:09.190Z,80.76
2022-11-14T01:22:35.698Z,80.39
2022-11-14T01:25:02.235Z,80.68
2022-11-14T01:27:31.511Z,80.56
2022-11-14T01:30:00.269Z,80.43
2022-11-14T01:32:27.620Z,80.87
2022-11-14T01:34:54.461Z,80.21
2022-11-14T01:37:20.990Z,80.63
2022-11-14T01:39:47.476Z,80.76
2022-11-14T01:42:14.005Z,80.67
2022-11-14T01:44:52.407Z,80.23
2022-11-14T01:47:26.244Z,80.40
2022-11-14T01:50:02.062Z,79.85
2022-11-14T01:52:35.114Z,80.12
2022-11-14T01:55:07.152Z,79.99
2022-11-14T01:57:44.138Z,79.61
2022-11-14T02:00:12.332Z,80.16
2022-11-14T02:02:40.134Z,79.69
2022-11-14T02:05:10.478Z,79.75
2022-11-14T02:07:40.322Z,80.13
2022-11-14T02:10:10.883Z,80.25
2022-11-14T02:12:38.270Z,80.71
2022-11-14T02:15:05.202Z,80.48
2022-11-14T02:17:32.813Z,81.26
2022-11-14T02:20:08.239Z,81.74
2022-11-14T02:22:34.768Z,81.39
2022-11-14T02:25:01.670Z,81.49
2022-11-14T02:27:29.199Z,82.09
2022-11-14T02:30:04.310Z,82.29
2022-11-14T02:32:45.046Z,82.35
2022-11-14T02:35:17.386Z,82.13
2022-11-14T02:37:43.895Z,82.52
2022-11-14T02:40:11.126Z,82.24
2022-11-14T02:42:37.890Z,82.62
2022-11-14T02:45:05.288Z,82.77
2022-11-14T02:47:34.107Z,82.22
2022-11-14T02:50:02.958Z,82.72
2022-11-14T02:52:29.487Z,82.37
2022-11-14T02:54:56.007Z,82.84
2022-11-14T02:57:27.134Z,83.03
2022-11-14T02:59:53.629Z,82.87
2022-11-14T03:02:20.143Z,83.06
2022-11-14T03:04:46.711Z,83.37
2022-11-14T03:07:13.325Z,83.29
2022-11-14T03:09:39.937Z,83.56
2022-11-14T03:12:06.543Z,83.30
2022-11-14T03:14:33.059Z,83.75
2022-11-14T03:17:02.026Z,83.58
2022-11-14T03:19:28.526Z,82.96
2022-11-14T03:21:55.009Z,83.37
2022-11-14T03:24:24.073Z,83.57
2022-11-14T03:26:50.571Z,83.73
2022-11-14T03:29:17.109Z,83.03
2022-11-14T03:31:43.678Z,83.30
2022-11-14T03:34:12.914Z,83.03
2022-11-14T03:36:39.458Z,82.90
2022-11-14T03:39:09.238Z,83.36
2022-11-14T03:41:36.008Z,83.30
2022-11-14T03:44:02.545Z,82.77
2022-11-14T03:46:31.603Z,83.03
2022-11-14T03:48:58.071Z,82.95
2022-11-14T03:51:24.562Z,83.37
2022-11-14T03:53:51.071Z,83.68
2022-11-14T03:56:17.600Z,83.59
2022-11-14T03:58:46.659Z,83.76
2022-11-14T04:01:13.391Z,83.86
2022-11-14T04:03:39.907Z,84.13
2022-11-14T04:06:06.490Z,84.11
2022-11-14T04:08:35.800Z,84.58
2022-11-14T04:11:04.826Z,84.08
2022-11-14T04:13:33.647Z,83.97
2022-11-14T04:16:02.464Z,84.12
2022-11-14T04:18:29.453Z,84.20
2022-11-14T04:20:56.351Z,83.33
2022-11-14T04:23:23.247Z,83.85
2022-11-14T04:25:49.738Z,83.75
2022-11-14T04:28:16.304Z,84.36
2022-11-14T04:30:42.839Z,84.14
2022-11-14T04:33:09.370Z,83.94
2022-11-14T04:35:35.874Z,83.33
2022-11-14T04:38:07.262Z,83.92
2022-11-14T04:40:33.824Z,83.74
2022-11-14T04:43:00.322Z,83.92
2022-11-14T04:45:26.936Z,84.35
2022-11-14T04:47:53.549Z,84.24
2022-11-14T04:50:20.423Z,84.49
2022-11-14T04:52:49.159Z,84.95
2022-11-14T04:55:15.668Z,84.31
2022-11-14T04:57:42.178Z,85.16
2022-11-14T05:00:09.486Z,85.20
2022-11-14T05:02:35.963Z,84.75
2022-11-14T05:05:02.511Z,85.28
2022-11-14T05:07:31.739Z,84.94
2022-11-14T05:10:00.580Z,85.23
2022-11-14T05:12:27.125Z,85.30
2022-11-14T05:14:53.625Z,84.53
2022-11-14T05:17:20.125Z,84.79
2022-11-14T05:19:46.640Z,85.00
2022-11-14T05:22:15.468Z,84.94
2022-11-14T05:24:42.042Z,85.24
2022-11-14T05:27:08.519Z,85.33
2022-11-14T05:29:37.493Z,85.31
2022-11-14T05:32:04.195Z,85.59
2022-11-14T05:34:30.728Z,84.87
2022-11-14T05:36:59.696Z,85.82
2022-11-14T05:39:26.183Z,84.95
2022-11-14T05:41:52.652Z,85.19
2022-11-14T05:44:21.538Z,85.60
2022-11-14T05:46:48.071Z,85.04
2022-11-14T05:49:19.212Z,85.46
2022-11-14T05:51:50.498Z,85.18
2022-11-14T05:54:17.012Z,85.87
2022-11-14T05:56:46.070Z,86.05
2022-11-14T05:59:12.550Z,86.02
2022-11-14T06:01:41.727Z,85.73
2022-11-14T06:04:08.277Z,86.18
2022-11-14T06:06:37.043Z,86.10
2022-11-14T06:09:03.600Z,85.62
2022-11-14T06:11:30.068Z,86.05
2022-11-14T06:13:56.626Z,86.36
2022-11-14T06:16:23.301Z,85.77
2022-11-14T06:18:53.189Z,86.42
2022-11-14T06:21:21.731Z,86.30
2022-11-14T06:23:48.871Z,86.57
2022-11-14T06:26:22.897Z,86.08
2022-11-14T06:28:50.792Z,86.49
2022-11-14T06:31:18.792Z,86.48
2022-11-14T06:33:45.883Z,86.93
2022-11-14T06:36:13.068Z,85.69
2022-11-14T06:38:41.144Z,86.09
2022-11-14T06:41:10.364Z,86.62
2022-11-14T06:43:41.633Z,86.38
2022-11-14T06:46:10.559Z,86.53
2022-11-14T06:48:37.446Z,86.15
2022-11-14T06:51:05.292Z,86.25
2022-11-14T06:53:34.447Z,85.92
2022-11-14T06:56:06.969Z,86.15
2022-11-14T06:58:36.133Z,86.40
2022-11-14T07:01:08.839Z,86.07
2022-11-14T07:03:35.365Z,86.54
2022-11-14T07:06:02.797Z,85.86
2022-11-14T07:08:29.784Z,86.50
2022-11-14T07:11:07.698Z,86.27
2022-11-14T07:13:35.138Z,85.95
2022-11-14T07:16:02.615Z,85.80
2022-11-14T07:18:33.933Z,86.07
2022-11-14T07:21:03.999Z,85.95
2022-11-14T07:23:34.763Z,86.47
2022-11-14T07:26:07.128Z,86.76
2022-11-14T07:28:39.670Z,85.52
2022-11-14T07:31:07.912Z,86.27
2022-11-14T07:33:35.077Z,85.78
2022-11-14T07:36:01.972Z,86.39
2022-11-14T07:38:30.639Z,85.87
2022-11-14T07:41:04.352Z,86.24
2022-11-14T07:43:31.297Z,86.14
2022-11-14T07:46:02.569Z,86.14
2022-11-14T07:48:32.421Z,85.57
2022-11-14T07:51:03.454Z,85.70
2022-11-14T07:53:30.578Z,85.51
2022-11-14T07:56:02.380Z,85.77
2022-11-14T07:58:29.371Z,85.57
2022-11-14T08:00:56.302Z,85.22
2022-11-14T08:03:22.868Z,85.05
2022-11-14T08:05:49.388Z,85.55
2022-11-14T08:08:15.872Z,85.28
2022-11-14T08:10:42.494Z,84.54
2022-11-14T08:13:30.905Z,84.67
2022-11-14T08:15:57.745Z,84.67
2022-11-14T08:18:24.309Z,85.18
2022-11-14T08:20:50.876Z,84.97
2022-11-14T08:23:17.378Z,84.74
2022-11-14T08:25:46.257Z,85.50
2022-11-14T08:28:12.750Z,84.52
2022-11-14T08:30:39.330Z,85.62
2022-11-14T08:33:07.046Z,84.66
2022-11-14T08:35:33.818Z,84.62
2022-11-14T08:38:03.486Z,84.75
2022-11-14T08:40:30.562Z,85.03
2022-11-14T08:43:03.497Z,84.57
2022-11-14T08:45:30.581Z,84.14
2022-11-14T08:47:57.168Z,84.60
2022-11-14T08:50:23.966Z,84.58
2022-11-14T08:52:53.079Z,84.66
2022-11-14T08:55:20.808Z,84.98
2022-11-14T08:57:53.073Z,84.56
2022-11-14T09:00:19.952Z,84.32
2022-11-14T09:02:47.095Z,84.03
2022-11-14T09:05:17.082Z,84.10
2022-11-14T09:07:43.586Z,83.55
2022-11-14T09:10:10.325Z,82.35
2022-11-14T09:12:39.223Z,81.29
2022-11-14T09:15:06.659Z,80.21
2022-11-14T09:17:33.213Z,79.43
2022-11-14T09:19:59.802Z,79.45
2022-11-14T09:22:26.347Z,78.97
2022-11-14T09:24:53.024Z,78.69
2022-11-14T09:27:21.829Z,78.52
2022-11-14T09:29:48.409Z,78.41
2022-11-14T09:32:14.914Z,78.41
2022-11-14T09:34:45.633Z,78.16
2022-11-14T09:37:12.195Z,78.27
2022-11-14T09:39:40.669Z,78.15
2022-11-14T09:42:40.537Z,78.38
2022-11-14T09:45:18.538Z,78.25
2022-11-14T09:47:53.015Z,78.00
2022-11-14T09:50:32.927Z,78.39
2022-11-14T09:53:05.567Z,78.28
2022-11-14T09:55:37.084Z,77.91
2022-11-14T09:58:05.201Z,77.95
2022-11-14T10:01:03.758Z,78.39
2022-11-14T10:03:54.527Z,78.43
2022-11-14T10:06:35.531Z,78.05
2022-11-14T10:09:49.835Z,77.97
2022-11-14T10:12:38.305Z,77.70
2022-11-14T10:15:31.081Z,77.83
2022-11-14T10:18:12.191Z,77.56
2022-11-14T10:20:46.277Z,77.53
2022-11-14T10:23:25.232Z,77.43
2022-11-14T10:26:16.548Z,77.52
2022-11-14T10:29:06.101Z,77.27
2022-11-14T10:32:11.258Z,77.05
2022-11-14T10:35:02.468Z,76.99
2022-11-14T10:37:37.847Z,76.98
2022-11-14T10:40:24.300Z,76.67
2022-11-14T10:43:00.722Z,76.78
2022-11-14T10:45:34.729Z,76.82
2022-11-14T10:48:13.163Z,76.83
2022-11-14T10:50:52.784Z,76.83
2022-11-14T10:53:31.568Z,76.68
2022-11-14T10:56:04.186Z,76.54
2022-11-14T10:58:42.029Z,76.52
2022-11-14T11:01:43.715Z,75.93
2022-11-14T11:04:27.673Z,75.83
2022-11-14T11:07:00.549Z,75.60
2022-11-14T11:09:47.449Z,75.63
2022-11-14T11:12:19.970Z,75.65
2022-11-14T11:14:48.442Z,75.10
2022-11-14T11:17:18.465Z,75.02
2022-11-14T11:19:47.340Z,75.14
2022-11-14T11:22:46.829Z,74.97
2022-11-14T11:25:28.175Z,74.96
2022-11-14T11:28:12.680Z,74.56
2022-11-14T11:30:39.670Z,74.79
2022-11-14T11:33:21.408Z,74.80
2022-11-14T11:35:50.730Z,74.42
2022-11-14T11:38:20.240Z,74.34
2022-11-14T11:40:51.369Z,73.81
2022-11-14T11:43:53.907Z,73.91
2022-11-14T11:46:46.850Z,73.82
2022-11-14T11:49:34.049Z,73.59
2022-11-14T11:52:39.835Z,73.69
2022-11-14T11:55:22.149Z,73.52
2022-11-14T11:58:03.426Z,73.93
2022-11-14T12:00:31.991Z,73.79
2022-11-14T12:03:04.168Z,73.48
2022-11-14T12:05:38.185Z,74.19
2022-11-14T12:08:15.998Z,74.03
2022-11-14T12:12:24.057Z,73.78
2022-11-14T12:14:07.898Z,73.86
2022-11-14T12:16:59.751Z,73.85
2022-11-14T12:19:55.119Z,74.13
2022-11-14T12:22:53.556Z,73.82
2022-11-14T12:25:38.883Z,74.22
2022-11-14T12:28:24.104Z,74.47
2022-11-14T12:30:58.662Z,74.46
2022-11-14T12:33:40.683Z,74.60
2022-11-14T12:36:14.464Z,74.44
2022-11-14T12:38:54.638Z,74.20
2022-11-14T12:41:30.985Z,74.30
2022-11-14T12:44:32.474Z,74.30
2022-11-14T12:47:19.070Z,74.19
2022-11-14T12:49:54.717Z,74.27
2022-11-14T12:52:56.011Z,74.45
2022-11-14T12:55:26.855Z,73.92
2022-11-14T12:58:19.744Z,73.98
2022-11-14T13:00:47.003Z,73.79
2022-11-14T13:03:17.422Z,73.99
2022-11-14T13:06:05.283Z,74.21
2022-11-14T13:09:07.974Z,74.71
2022-11-14T13:12:06.161Z,74.27
2022-11-14T13:15:08.511Z,74.42
2022-11-14T13:18:15.547Z,74.58
2022-11-14T13:21:01.347Z,74.41
2022-11-14T13:23:28.231Z,74.65
2022-11-14T13:26:21.482Z,75.09
2022-11-14T13:28:52.501Z,74.85
2022-11-14T13:31:26.504Z,75.49
2022-11-14T13:34:00.908Z,75.16
2022-11-14T13:36:59.064Z,75.78
2022-11-14T13:39:51.852Z,76.00
2022-11-14T13:42:54.871Z,76.03
2022-11-14T13:45:31.647Z,76.27
2022-11-14T13:48:23.554Z,75.61
2022-11-14T13:50:55.889Z,75.97
2022-11-14T13:53:27.590Z,75.99
2022-11-14T13:56:05.218Z,76.13
2022-11-14T13:59:05.148Z,76.16
2022-11-14T14:02:02.377Z,76.28
2022-11-14T14:04:38.688Z,76.62
2022-11-14T14:07:30.105Z,76.71
2022-11-14T14:10:24.284Z,76.58
2022-11-14T14:13:15.053Z,76.91
2022-11-14T14:16:07.705Z,76.83
2022-11-14T14:18:45.388Z,76.87
2022-11-14T14:21:31.801Z,76.96
2022-11-14T14:24:18.958Z,77.17
2022-11-14T14:26:56.761Z,77.24
2022-11-14T14:29:30.824Z,77.29
2022-11-14T14:32:11.403Z,77.41
2022-11-14T14:34:39.602Z,77.44
2022-11-14T14:37:25.677Z,77.51
2022-11-14T14:40:02.815Z,77.71
2022-11-14T14:42:41.090Z,77.50
2022-11-14T14:45:20.017Z,77.87
2022-11-14T14:47:58.665Z,77.58
2022-11-14T14:50:31.320Z,78.09
2022-11-14T14:53:02.515Z,77.83
2022-11-14T14:55:37.511Z,77.87
2022-11-14T14:58:36.237Z,78.08
2022-11-14T15:01:34.144Z,77.97
2022-11-14T15:04:11.868Z,78.62
2022-11-14T15:06:39.694Z,78.65
2022-11-14T15:09:20.847Z,78.88
2022-11-14T15:11:51.052Z,78.75
2022-11-14T15:14:24.766Z,78.60
2022-11-14T15:16:55.741Z,78.93
2022-11-14T15:19:31.760Z,79.17
2022-11-14T15:22:05.302Z,79.44
2022-11-14T15:24:32.119Z,79.49
2022-11-14T15:26:58.726Z,79.79
2022-11-14T15:29:28.313Z,79.93
2022-11-14T15:32:01.046Z,80.35
2022-11-14T15:34:35.783Z,80.25
2022-11-14T15:37:14.393Z,80.38
2022-11-14T15:39:41.343Z,80.81
2022-11-14T15:42:28.165Z,80.76
2022-11-14T15:44:56.999Z,80.99
2022-11-14T15:47:39.021Z,81.17
2022-11-14T15:50:25.564Z,81.32
2022-11-14T15:53:23.215Z,81.36
2022-11-14T15:55:50.418Z,81.49
2022-11-14T15:58:33.058Z,81.54
2022-11-14T16:01:04.539Z,81.60
2022-11-14T16:03:31.568Z,81.74
2022-11-14T16:05:58.350Z,82.09
2022-11-14T16:08:24.995Z,81.87
2022-11-14T16:10:51.704Z,82.11
2022-11-14T16:13:18.242Z,82.41
2022-11-14T16:15:47.310Z,82.12
2022-11-14T16:18:14.408Z,82.29
2022-11-14T16:20:41.785Z,82.53
2022-11-14T16:23:13.729Z,82.45
2022-11-14T16:25:40.429Z,82.55
2022-11-14T16:28:06.976Z,82.70
2022-11-14T16:30:34.357Z,82.52
2022-11-14T16:33:01.075Z,82.57
2022-11-14T16:35:28.161Z,82.62
2022-11-14T16:37:55.506Z,82.66
2022-11-14T16:40:27.905Z,82.93
2022-11-14T16:42:56.173Z,82.96
2022-11-14T16:45:23.740Z,82.87
2022-11-14T16:47:50.695Z,83.16
2022-11-14T16:50:18.903Z,82.91
2022-11-14T16:52:48.550Z,83.12
2022-11-14T16:55:15.147Z,83.11
2022-11-14T16:57:41.840Z,83.12
2022-11-14T17:00:12.362Z,83.03
2022-11-14T17:02:45.624Z,83.17
2022-11-14T17:05:14.480Z,83.53
2022-11-14T17:07:41.020Z,83.20
2022-11-14T17:10:08.002Z,83.33
2022-11-14T17:12:34.605Z,83.20
2022-11-14T17:15:01.175Z,83.33
2022-11-14T17:17:30.773Z,83.40
2022-11-14T17:19:57.409Z,83.46
2022-11-14T17:22:24.592Z,83.76
2022-11-14T17:24:53.618Z,83.69
2022-11-14T17:27:20.203Z,83.58
2022-11-14T17:29:46.827Z,83.39
2022-11-14T17:32:13.355Z,83.63
2022-11-14T17:34:39.913Z,83.73
2022-11-14T17:37:06.429Z,83.67
2022-11-14T17:39:35.094Z,83.75
2022-11-14T17:42:01.735Z,83.88
2022-11-14T17:44:28.232Z,83.97
2022-11-14T17:46:55.931Z,83.94
2022-11-14T17:49:25.497Z,83.89
2022-11-14T17:51:52.084Z,83.78
2022-11-14T17:54:18.668Z,84.02
2022-11-14T17:56:49.685Z,83.76
2022-11-14T17:59:20.433Z,83.92
2022-11-14T18:01:47.518Z,83.91
2022-11-14T18:04:14.046Z,84.04
2022-11-14T18:06:42.792Z,84.03
2022-11-14T18:09:14.034Z,83.93
2022-11-14T18:11:41.214Z,84.00
2022-11-14T18:14:07.923Z,83.95
2022-11-14T18:17:05.523Z,84.31
2022-11-14T18:19:23.274Z,84.31
2022-11-14T18:21:53.914Z,84.32
2022-11-14T18:24:21.661Z,84.16
2022-11-14T18:26:48.303Z,84.06
2022-11-14T18:29:18.014Z,84.24
2022-11-14T18:31:44.576Z,83.72
2022-11-14T18:34:11.142Z,84.32
2022-11-14T18:36:37.671Z,84.48
2022-11-14T18:39:04.298Z,84.43
2022-11-14T18:41:30.884Z,84.47
2022-11-14T18:44:02.439Z,84.30
2022-11-14T18:46:34.395Z,84.67
2022-11-14T18:49:03.646Z,84.22
2022-11-14T18:51:30.890Z,84.39
2022-11-14T18:53:59.296Z,84.44
2022-11-14T18:56:28.499Z,84.52
2022-11-14T18:58:58.741Z,84.81
2022-11-14T19:01:29.274Z,84.51
2022-11-14T19:04:01.297Z,84.51
2022-11-14T19:06:29.678Z,84.74
2022-11-14T19:09:02.741Z,84.78
2022-11-14T19:11:49.689Z,84.84
2022-11-14T19:14:16.911Z,84.71
2022-11-14T19:16:47.113Z,84.60
2022-11-14T19:19:13.944Z,84.78
2022-11-14T19:21:41.392Z,84.92
2022-11-14T19:24:10.749Z,84.88
2022-11-14T19:26:37.426Z,84.74
2022-11-14T19:29:10.460Z,84.72
2022-11-14T19:31:39.093Z,84.94
2022-11-14T19:34:06.250Z,84.26
2022-11-14T19:36:58.219Z,84.17
2022-11-14T19:39:21.826Z,83.81
2022-11-14T19:41:48.474Z,83.70
2022-11-14T19:44:17.348Z,83.72
2022-11-14T19:46:47.554Z,83.65
2022-11-14T19:49:14.476Z,83.48
2022-11-14T19:51:41.022Z,83.55
2022-11-14T19:54:11.140Z,83.51
2022-11-14T19:56:38.158Z,83.25
2022-11-14T19:59:09.554Z,83.46
2022-11-14T20:01:42.160Z,83.31
2022-11-14T20:04:12.204Z,83.18
2022-11-14T20:06:38.876Z,83.14
2022-11-14T20:09:10.685Z,83.17
2022-11-14T20:11:37.395Z,83.16
2022-11-14T20:14:05.636Z,83.19
2022-11-14T20:16:34.509Z,83.12
2022-11-14T20:19:01.680Z,83.06
2022-11-14T20:21:32.029Z,83.13
2022-11-14T20:23:59.304Z,82.96
2022-11-14T20:26:26.183Z,82.76
2022-11-14T20:28:53.999Z,83.33
2022-11-14T20:31:30.767Z,83.40
2022-11-14T20:33:57.378Z,83.17
2022-11-14T20:36:26.092Z,83.11
2022-11-14T20:38:53.828Z,82.57
2022-11-14T20:41:21.370Z,83.11
2022-11-14T20:43:48.218Z,83.07
2022-11-14T20:46:20.148Z,83.25
2022-11-14T20:48:49.373Z,82.75
2022-11-14T20:51:22.074Z,83.00
2022-11-14T20:53:50.669Z,83.19
2022-11-14T20:56:17.977Z,82.96
2022-11-14T20:58:46.590Z,82.99
2022-11-14T21:01:14.533Z,83.09
2022-11-14T21:03:43.761Z,83.10
2022-11-14T21:06:12.927Z,83.12
2022-11-14T21:08:40.140Z,83.12
2022-11-14T21:11:11.096Z,83.35
2022-11-14T21:13:59.045Z,83.20
2022-11-14T21:16:34.620Z,82.93
2022-11-14T21:19:04.697Z,83.12
2022-11-14T21:21:34.574Z,83.43
2022-11-14T21:24:01.096Z,83.11
2022-11-14T21:26:33.212Z,83.37
2022-11-14T21:29:02.139Z,83.39
2022-11-14T21:31:33.969Z,83.14
2022-11-14T21:34:05.982Z,83.51
2022-11-14T21:36:48.193Z,83.30
2022-11-14T21:39:16.370Z,83.07
2022-11-14T21:41:44.484Z,83.72
2022-11-14T21:44:13.553Z,83.22
2022-11-14T21:46:48.537Z,83.44
2022-11-14T21:49:15.155Z,83.53
2022-11-14T21:51:41.717Z,83.42
2022-11-14T21:54:09.389Z,83.21
2022-11-14T21:56:37.295Z,83.47
2022-11-14T21:59:15.594Z,83.42
2022-11-14T22:02:03.682Z,83.89
2022-11-14T22:04:31.502Z,83.30
2022-11-14T22:06:59.137Z,83.38
2022-11-14T22:09:29.069Z,83.58
2022-11-14T22:11:56.399Z,83.76
2022-11-14T22:14:23.249Z,83.65
2022-11-14T22:16:50.128Z,83.64
2022-11-14T22:19:16.704Z,83.50
2022-11-14T22:21:43.255Z,83.73
2022-11-14T22:24:09.769Z,83.80
2022-11-14T22:26:39.848Z,83.68
2022-11-14T22:29:07.915Z,83.61
2022-11-14T22:31:34.731Z,83.59
2022-11-14T22:34:03.530Z,83.71
2022-11-14T22:36:30.016Z,83.76
2022-11-14T22:39:01.419Z,83.88
2022-11-14T22:41:32.597Z,83.40
2022-11-14T22:44:00.193Z,83.91
2022-11-14T22:46:27.604Z,84.16
2022-11-14T22:48:54.822Z,83.96
2022-11-14T22:51:30.440Z,84.43
2022-11-14T22:53:58.024Z,83.94
2022-11-14T22:56:29.023Z,84.45
2022-11-14T22:58:56.327Z,84.23
2022-11-14T23:01:31.479Z,84.53
2022-11-14T23:04:00.575Z,84.50
2022-11-14T23:06:28.344Z,84.56
2022-11-14T23:08:55.192Z,84.52
2022-11-14T23:11:25.929Z,84.69
2022-11-14T23:13:55.192Z,84.72
2022-11-14T23:16:26.993Z,84.75
2022-11-14T23:18:58.086Z,84.96
2022-11-14T23:21:28.067Z,85.05
2022-11-14T23:24:06.492Z,85.28
2022-11-14T23:26:33.943Z,85.21
2022-11-14T23:29:00.946Z,85.10
2022-11-14T23:31:27.506Z,85.37
2022-11-14T23:33:55.684Z,85.49
2022-11-14T23:36:24.605Z,85.76
2022-11-14T23:38:54.618Z,85.51
2022-11-14T23:41:27.924Z,85.59
2022-11-14T23:43:54.531Z,85.61
2022-11-14T23:46:21.198Z,85.59
2022-11-14T23:48:50.855Z,85.74
2022-11-14T23:51:17.613Z,86.13
2022-11-14T23:53:44.415Z,86.16
2022-11-14T23:56:13.250Z,86.02
2022-11-14T23:58:40.521Z,86.24
